createdAt,value
2023-03-27T00:00:05.489Z,7.27
2023-03-27T00:01:05.500Z,7.24
2023-03-27T00:02:05.520Z,7.23
2023-03-27T00:03:05.523Z,7.22
2023-03-27T00:04:05.480Z,7.17
2023-03-27T00:05:05.422Z,7.12
2023-03-27T00:06:05.407Z,7.12
2023-03-27T00:07:05.407Z,7.08
2023-03-27T00:08:05.382Z,7.08
2023-03-27T00:09:05.359Z,7.07
2023-03-27T00:10:05.321Z,7.08
2023-03-27T00:11:05.351Z,7.08
2023-03-27T00:12:05.299Z,7.08
2023-03-27T00:13:05.301Z,7.08
2023-03-27T00:14:05.293Z,7.09
2023-03-27T00:15:05.258Z,7.09
2023-03-27T00:16:05.288Z,7.07
2023-03-27T00:17:05.350Z,7.08
2023-03-27T00:18:05.277Z,7.08
2023-03-27T00:19:05.263Z,7.07
2023-03-27T00:20:05.193Z,7.05
2023-03-27T00:21:05.227Z,7.04
2023-03-27T00:22:05.178Z,7.05
2023-03-27T00:23:05.205Z,7.07
2023-03-27T00:24:05.166Z,7.09
2023-03-27T00:25:05.205Z,7.05
2023-03-27T00:26:05.140Z,7.04
2023-03-27T00:27:05.118Z,7.02
2023-03-27T00:28:05.145Z,6.99
2023-03-27T00:29:05.107Z,7.01
2023-03-27T00:30:05.091Z,7.01
2023-03-27T00:31:05.118Z,7.02
2023-03-27T00:32:05.055Z,7.02
2023-03-27T00:33:05.122Z,7.04
2023-03-27T00:34:05.033Z,7.07
2023-03-27T00:35:05.077Z,7.08
2023-03-27T00:36:05.083Z,7.08
2023-03-27T00:37:05.008Z,7.08
2023-03-27T00:38:04.974Z,7.09
2023-03-27T00:39:04.976Z,7.08
2023-03-27T00:40:04.986Z,7.09
2023-03-27T00:41:05.096Z,7.09
2023-03-27T00:42:04.938Z,7.07
2023-03-27T00:43:04.909Z,7.05
2023-03-27T00:44:04.906Z,7.01
2023-03-27T00:45:04.907Z,7.04
2023-03-27T00:46:04.899Z,7.04
2023-03-27T00:47:04.887Z,7.05
2023-03-27T00:48:04.868Z,7.04
2023-03-27T00:49:04.873Z,7.02
2023-03-27T00:50:04.853Z,6.98
2023-03-27T00:51:04.838Z,6.99
2023-03-27T00:52:04.847Z,7.01
2023-03-27T00:53:04.777Z,7.01
2023-03-27T00:54:04.790Z,7.01
2023-03-27T00:55:04.788Z,6.99
2023-03-27T00:56:04.851Z,6.98
2023-03-27T00:57:04.805Z,6.97
2023-03-27T00:58:04.711Z,6.95
2023-03-27T00:59:04.732Z,6.95
2023-03-27T01:00:04.702Z,6.98
2023-03-27T01:01:04.742Z,6.97
2023-03-27T01:02:04.680Z,6.98
2023-03-27T01:03:04.845Z,7.01
2023-03-27T01:04:04.641Z,7.02
2023-03-27T01:05:04.635Z,7.04
2023-03-27T01:06:04.616Z,7.07
2023-03-27T01:07:04.622Z,7.02
2023-03-27T01:08:04.582Z,7.01
2023-03-27T01:09:04.584Z,6.98
2023-03-27T01:10:04.590Z,6.95
2023-03-27T01:11:04.579Z,6.97
2023-03-27T01:12:04.565Z,6.97
2023-03-27T01:13:04.537Z,6.99
2023-03-27T01:14:04.529Z,6.97
2023-03-27T01:15:04.538Z,6.95
2023-03-27T01:16:04.563Z,6.94
2023-03-27T01:17:04.467Z,6.94
2023-03-27T01:18:04.587Z,6.91
2023-03-27T01:19:04.449Z,6.89
2023-03-27T01:20:04.468Z,6.86
2023-03-27T01:21:04.430Z,6.81
2023-03-27T01:22:04.416Z,6.80
2023-03-27T01:23:04.403Z,6.79
2023-03-27T01:24:04.371Z,6.72
2023-03-27T01:25:04.362Z,6.71
2023-03-27T01:26:04.399Z,6.69
2023-03-27T01:27:04.392Z,6.69
2023-03-27T01:28:04.325Z,6.66
2023-03-27T01:29:04.386Z,6.68
2023-03-27T01:30:04.355Z,6.66
2023-03-27T01:31:04.364Z,6.66
2023-03-27T01:32:04.277Z,6.66
2023-03-27T01:33:04.330Z,6.68
2023-03-27T01:34:04.254Z,6.66
2023-03-27T01:35:04.234Z,6.63
2023-03-27T01:36:04.321Z,6.63
2023-03-27T01:37:04.204Z,6.62
2023-03-27T01:38:04.203Z,6.62
2023-03-27T01:39:04.271Z,6.63
2023-03-27T01:40:04.240Z,6.61
2023-03-27T01:41:04.208Z,6.59
2023-03-27T01:42:04.194Z,6.59
2023-03-27T01:43:04.137Z,6.59
2023-03-27T01:44:04.110Z,6.59
2023-03-27T01:45:04.151Z,6.61
2023-03-27T01:46:04.099Z,6.61
2023-03-27T01:47:04.330Z,6.61
2023-03-27T01:48:04.120Z,6.59
2023-03-27T01:49:04.069Z,6.56
2023-03-27T01:50:04.043Z,6.54
2023-03-27T01:51:04.034Z,6.53
2023-03-27T01:52:04.053Z,6.50
2023-03-27T01:53:03.999Z,6.50
2023-03-27T01:54:04.009Z,6.50
2023-03-27T01:55:04.071Z,6.48
2023-03-27T01:56:03.968Z,6.47
2023-03-27T01:57:04.097Z,6.44
2023-03-27T01:58:03.962Z,6.46
2023-03-27T01:59:04.042Z,6.47
2023-03-27T02:00:17.447Z,6.46
2023-03-27T02:01:05.189Z,6.43
2023-03-27T02:02:03.899Z,6.40
2023-03-27T02:03:03.905Z,6.38
2023-03-27T02:04:03.878Z,6.33
2023-03-27T02:05:03.923Z,6.32
2023-03-27T02:06:03.855Z,6.32
2023-03-27T02:07:03.859Z,6.28
2023-03-27T02:08:03.811Z,6.21
2023-03-27T02:09:03.803Z,6.25
2023-03-27T02:10:03.798Z,6.22
2023-03-27T02:11:03.784Z,6.25
2023-03-27T02:12:03.790Z,6.26
2023-03-27T02:13:03.751Z,6.26
2023-03-27T02:14:03.723Z,6.22
2023-03-27T02:15:23.100Z,6.21
2023-03-27T02:16:04.806Z,6.16
2023-03-27T02:17:03.694Z,6.11
2023-03-27T02:18:03.730Z,6.13
2023-03-27T02:19:03.662Z,6.14
2023-03-27T02:20:03.660Z,6.14
2023-03-27T02:21:03.658Z,6.11
2023-03-27T02:22:03.702Z,6.10
2023-03-27T02:23:03.655Z,6.09
2023-03-27T02:24:03.638Z,6.10
2023-03-27T02:25:03.593Z,6.10
2023-03-27T02:26:03.599Z,6.07
2023-03-27T02:27:03.683Z,6.06
2023-03-27T02:28:03.562Z,6.06
2023-03-27T02:29:03.540Z,6.06
2023-03-27T02:30:03.529Z,6.03
2023-03-27T02:31:06.335Z,6.04
2023-03-27T02:32:04.580Z,6.03
2023-03-27T02:33:03.533Z,6.03
2023-03-27T02:34:03.500Z,6.03
2023-03-27T02:35:03.480Z,6.01
2023-03-27T02:36:03.556Z,5.98
2023-03-27T02:37:03.459Z,6.00
2023-03-27T02:38:03.416Z,5.93
2023-03-27T02:39:03.482Z,5.91
2023-03-27T02:40:03.387Z,5.89
2023-03-27T02:41:03.397Z,5.86
2023-03-27T02:42:03.401Z,5.83
2023-03-27T02:43:03.349Z,5.82
2023-03-27T02:44:03.368Z,5.81
2023-03-27T02:45:03.362Z,5.81
2023-03-27T02:46:03.339Z,5.78
2023-03-27T02:47:03.333Z,5.74
2023-03-27T02:48:03.339Z,5.73
2023-03-27T02:49:03.288Z,5.70
2023-03-27T02:50:03.281Z,5.68
2023-03-27T02:51:03.254Z,5.67
2023-03-27T02:52:03.276Z,5.63
2023-03-27T02:53:03.376Z,5.56
2023-03-27T02:54:03.259Z,5.53
2023-03-27T02:55:03.209Z,5.52
2023-03-27T02:56:03.174Z,5.52
2023-03-27T02:57:03.268Z,5.49
2023-03-27T02:58:03.264Z,5.49
2023-03-27T02:59:03.138Z,5.48
2023-03-27T03:00:03.169Z,5.45
2023-03-27T03:01:03.164Z,5.43
2023-03-27T03:02:03.159Z,5.40
2023-03-27T03:03:03.203Z,5.38
2023-03-27T03:04:03.108Z,5.35
2023-03-27T03:05:03.096Z,5.34
2023-03-27T03:06:03.067Z,5.35
2023-03-27T03:07:03.095Z,5.34
2023-03-27T03:08:03.061Z,5.32
2023-03-27T03:09:03.023Z,5.32
2023-03-27T03:10:03.052Z,5.30
2023-03-27T03:11:02.998Z,5.25
2023-03-27T03:12:03.027Z,5.19
2023-03-27T03:13:02.974Z,5.17
2023-03-27T03:14:02.951Z,5.16
2023-03-27T03:15:02.997Z,5.14
2023-03-27T03:16:02.922Z,5.13
2023-03-27T03:17:03.043Z,5.12
2023-03-27T03:18:02.997Z,5.14
2023-03-27T03:19:02.888Z,5.14
2023-03-27T03:20:02.947Z,5.14
2023-03-27T03:21:02.895Z,5.12
2023-03-27T03:22:02.848Z,5.12
2023-03-27T03:23:02.908Z,5.12
2023-03-27T03:24:02.828Z,5.13
2023-03-27T03:25:02.886Z,5.13
2023-03-27T03:26:02.827Z,5.16
2023-03-27T03:27:02.829Z,5.13
2023-03-27T03:28:02.805Z,5.13
2023-03-27T03:29:02.839Z,5.13
2023-03-27T03:30:02.824Z,5.13
2023-03-27T03:31:02.816Z,5.12
2023-03-27T03:32:02.789Z,5.13
2023-03-27T03:33:02.809Z,5.14
2023-03-27T03:34:02.703Z,5.13
2023-03-27T03:35:02.685Z,5.13
2023-03-27T03:36:02.723Z,5.14
2023-03-27T03:37:02.706Z,5.14
2023-03-27T03:38:02.637Z,5.14
2023-03-27T03:39:02.645Z,5.13
2023-03-27T03:40:02.622Z,5.16
2023-03-27T03:41:02.602Z,5.19
2023-03-27T03:42:02.614Z,5.14
2023-03-27T03:43:02.578Z,5.12
2023-03-27T03:44:02.576Z,5.10
2023-03-27T03:45:02.574Z,5.09
2023-03-27T03:46:02.611Z,5.13
2023-03-27T03:47:02.524Z,5.12
2023-03-27T03:48:02.556Z,5.09
2023-03-27T03:49:02.511Z,5.10
2023-03-27T04:02:44.933Z,4.99
2023-03-27T04:03:44.916Z,4.98
2023-03-27T04:04:46.564Z,4.92
2023-03-27T04:05:44.816Z,4.91
2023-03-27T04:06:44.810Z,4.89
2023-03-27T04:07:44.801Z,4.88
2023-03-27T04:08:44.817Z,4.89
2023-03-27T04:09:44.766Z,4.86
2023-03-27T04:10:44.769Z,4.84
2023-03-27T04:11:44.759Z,4.80
2023-03-27T04:12:44.728Z,4.80
2023-03-27T04:13:44.702Z,4.83
2023-03-27T04:14:44.694Z,4.83
2023-03-27T04:15:44.750Z,4.80
2023-03-27T04:16:44.687Z,4.79
2023-03-27T04:17:44.777Z,4.83
2023-03-27T04:18:44.699Z,4.86
2023-03-27T04:19:44.659Z,4.84
2023-03-27T04:20:44.662Z,4.83
2023-03-27T04:21:44.622Z,4.80
2023-03-27T04:22:44.598Z,4.79
2023-03-27T04:23:44.585Z,4.79
2023-03-27T04:24:44.594Z,4.79
2023-03-27T04:25:44.648Z,4.80
2023-03-27T04:26:44.580Z,4.83
2023-03-27T04:27:44.539Z,4.86
2023-03-27T04:28:44.600Z,4.84
2023-03-27T04:29:44.573Z,4.86
2023-03-27T04:30:44.546Z,4.86
2023-03-27T04:31:44.557Z,4.86
2023-03-27T04:32:44.494Z,4.88
2023-03-27T04:33:44.483Z,4.88
2023-03-27T04:34:44.477Z,4.86
2023-03-27T04:35:44.496Z,4.88
2023-03-27T04:36:44.441Z,4.84
2023-03-27T04:37:44.423Z,4.84
2023-03-27T04:38:44.405Z,4.83
2023-03-27T04:39:44.389Z,4.84
2023-03-27T04:40:44.417Z,4.84
2023-03-27T04:41:44.371Z,4.84
2023-03-27T04:42:44.352Z,4.86
2023-03-27T04:43:44.391Z,4.83
2023-03-27T04:44:44.362Z,4.80
2023-03-27T04:45:44.324Z,4.79
2023-03-27T04:46:44.423Z,4.75
2023-03-27T04:47:44.477Z,4.70
2023-03-27T04:48:44.301Z,4.67
2023-03-27T04:49:44.261Z,4.62
2023-03-27T04:50:44.259Z,4.58
2023-03-27T04:51:44.242Z,4.57
2023-03-27T04:52:44.232Z,4.51
2023-03-27T04:53:44.226Z,4.50
2023-03-27T04:54:44.201Z,4.47
2023-03-27T04:55:44.190Z,4.46
2023-03-27T04:56:44.195Z,4.47
2023-03-27T04:57:44.167Z,4.47
2023-03-27T04:58:44.164Z,4.42
2023-03-27T04:59:44.132Z,4.39
2023-03-27T05:00:44.153Z,4.37
2023-03-27T05:01:44.128Z,4.34
2023-03-27T05:02:44.186Z,4.32
2023-03-27T05:03:44.136Z,4.28
2023-03-27T05:04:44.073Z,4.26
2023-03-27T05:05:44.069Z,4.28
2023-03-27T05:06:44.041Z,4.28
2023-03-27T05:07:44.031Z,4.29
2023-03-27T05:08:44.046Z,4.28
2023-03-27T05:09:44.046Z,4.28
2023-03-27T05:10:44.062Z,4.28
2023-03-27T05:11:43.964Z,4.29
2023-03-27T05:12:43.963Z,4.28
2023-03-27T05:13:43.964Z,4.26
2023-03-27T05:14:43.936Z,4.24
2023-03-27T05:15:43.919Z,4.24
2023-03-27T05:16:44.064Z,4.19
2023-03-27T05:17:43.905Z,4.18
2023-03-27T05:18:43.912Z,4.16
2023-03-27T05:19:43.874Z,4.16
2023-03-27T05:20:43.876Z,4.16
2023-03-27T05:21:43.896Z,4.19
2023-03-27T05:22:43.827Z,4.21
2023-03-27T05:23:43.861Z,4.16
2023-03-27T05:24:43.839Z,4.15
2023-03-27T05:25:43.797Z,4.16
2023-03-27T05:26:43.798Z,4.14
2023-03-27T05:27:43.806Z,4.15
2023-03-27T05:28:43.749Z,4.14
2023-03-27T05:29:46.797Z,4.12
2023-03-27T05:30:43.772Z,4.10
2023-03-27T05:31:43.727Z,4.12
2023-03-27T05:32:43.914Z,4.10
2023-03-27T05:33:43.680Z,4.12
2023-03-27T05:34:43.669Z,4.14
2023-03-27T05:35:43.681Z,4.15
2023-03-27T05:36:43.656Z,4.10
2023-03-27T05:37:43.629Z,4.07
2023-03-27T05:38:43.650Z,4.07
2023-03-27T05:39:43.652Z,4.08
2023-03-27T05:40:43.602Z,4.08
2023-03-27T05:41:43.587Z,4.08
2023-03-27T05:42:43.572Z,4.08
2023-03-27T05:43:43.551Z,4.12
2023-03-27T05:44:43.528Z,4.10
2023-03-27T05:45:43.546Z,4.12
2023-03-27T05:46:43.608Z,4.16
2023-03-27T05:47:43.534Z,4.19
2023-03-27T05:48:43.484Z,4.21
2023-03-27T05:49:43.495Z,4.21
2023-03-27T05:50:43.473Z,4.22
2023-03-27T05:51:47.180Z,4.19
2023-03-27T05:52:43.446Z,4.18
2023-03-27T05:53:43.442Z,4.16
2023-03-27T05:54:43.423Z,4.15
2023-03-27T05:55:43.410Z,4.15
2023-03-27T05:56:43.467Z,4.18
2023-03-27T05:57:43.384Z,4.18
2023-03-27T05:58:43.375Z,4.19
2023-03-27T05:59:43.383Z,4.22
2023-03-27T06:00:43.344Z,4.21
2023-03-27T06:01:43.352Z,4.25
2023-03-27T06:02:43.527Z,4.25
2023-03-27T06:03:43.454Z,4.26
2023-03-27T06:04:43.336Z,4.25
2023-03-27T06:05:43.315Z,4.26
2023-03-27T06:06:43.280Z,4.26
2023-03-27T06:07:43.747Z,4.25
2023-03-27T06:08:43.235Z,4.26
2023-03-27T06:09:43.223Z,4.28
2023-03-27T06:10:43.257Z,4.32
2023-03-27T06:11:43.238Z,4.33
2023-03-27T06:12:43.210Z,4.29
2023-03-27T06:13:43.175Z,4.28
2023-03-27T06:14:43.169Z,4.26
2023-03-27T06:15:43.305Z,4.24
2023-03-27T06:16:43.124Z,4.22
2023-03-27T06:17:43.140Z,4.22
2023-03-27T06:18:43.096Z,4.24
2023-03-27T06:19:43.093Z,4.25
2023-03-27T06:20:43.086Z,4.25
2023-03-27T06:21:43.091Z,4.26
2023-03-27T06:22:43.077Z,4.32
2023-03-27T06:23:43.048Z,4.32
2023-03-27T06:24:43.022Z,4.32
2023-03-27T06:25:43.026Z,4.29
2023-03-27T06:26:43.037Z,4.32
2023-03-27T06:27:43.004Z,4.29
2023-03-27T06:28:42.978Z,4.28
2023-03-27T06:29:42.971Z,4.26
2023-03-27T06:30:42.963Z,4.25
2023-03-27T06:31:42.976Z,4.24
2023-03-27T06:32:43.001Z,4.22
2023-03-27T06:33:42.935Z,4.21
2023-03-27T06:34:42.915Z,4.19
2023-03-27T06:35:42.934Z,4.16
2023-03-27T06:36:42.910Z,4.16
2023-03-27T06:37:42.883Z,4.16
2023-03-27T06:38:42.872Z,4.15
2023-03-27T06:39:42.851Z,4.15
2023-03-27T06:40:42.816Z,4.15
2023-03-27T06:41:42.814Z,4.14
2023-03-27T06:42:43.309Z,4.14
2023-03-27T06:43:42.818Z,4.10
2023-03-27T06:44:42.848Z,4.12
2023-03-27T06:45:42.772Z,4.16
2023-03-27T06:46:45.411Z,4.16
2023-03-27T06:47:53.953Z,4.15
2023-03-27T06:48:43.795Z,4.19
2023-03-27T06:49:42.710Z,4.16
2023-03-27T06:50:42.696Z,4.16
2023-03-27T06:51:42.701Z,4.16
2023-03-27T06:52:42.682Z,4.16
2023-03-27T06:53:42.659Z,4.15
2023-03-27T06:54:42.649Z,4.16
2023-03-27T06:55:42.632Z,4.22
2023-03-27T06:56:42.628Z,4.24
2023-03-27T06:57:42.624Z,4.19
2023-03-27T06:58:42.591Z,4.18
2023-03-27T06:59:42.594Z,4.16
2023-03-27T07:00:42.574Z,4.15
2023-03-27T07:01:42.633Z,4.16
2023-03-27T07:02:42.659Z,4.19
2023-03-27T07:03:42.526Z,4.22
2023-03-27T07:04:51.144Z,4.25
2023-03-27T07:05:43.613Z,4.26
2023-03-27T07:06:42.504Z,4.28
2023-03-27T07:07:42.517Z,4.26
2023-03-27T07:08:42.483Z,4.28
2023-03-27T07:09:42.433Z,4.29
2023-03-27T07:10:42.442Z,4.26
2023-03-27T07:11:42.419Z,4.28
2023-03-27T07:12:42.410Z,4.32
2023-03-27T07:13:42.572Z,4.26
2023-03-27T07:14:42.399Z,4.22
2023-03-27T07:15:42.365Z,4.22
2023-03-27T07:16:42.432Z,4.21
2023-03-27T07:17:48.751Z,4.19
2023-03-27T07:18:43.333Z,4.19
2023-03-27T07:19:42.311Z,4.16
2023-03-27T07:20:42.299Z,4.08
2023-03-27T07:21:42.300Z,4.03
2023-03-27T07:22:42.316Z,4.03
2023-03-27T07:23:42.266Z,4.03
2023-03-27T07:24:42.266Z,4.01
2023-03-27T07:25:42.241Z,4.04
2023-03-27T07:26:42.227Z,4.04
2023-03-27T07:27:42.198Z,4.07
2023-03-27T07:28:42.224Z,4.12
2023-03-27T07:29:42.188Z,4.04
2023-03-27T07:30:42.188Z,4.03
2023-03-27T07:31:55.851Z,4.03
2023-03-27T07:32:43.341Z,4.04
2023-03-27T07:33:42.197Z,4.04
2023-03-27T07:34:42.120Z,4.03
2023-03-27T07:35:42.134Z,4.03
2023-03-27T07:36:42.107Z,4.01
2023-03-27T07:37:42.096Z,4.03
2023-03-27T07:38:42.117Z,4.07
2023-03-27T07:39:42.058Z,4.08
2023-03-27T07:40:42.063Z,4.10
2023-03-27T07:41:42.034Z,4.10
2023-03-27T07:42:42.034Z,4.07
2023-03-27T07:43:42.269Z,4.07
2023-03-27T07:44:41.999Z,4.04
2023-03-27T07:45:42.137Z,4.03
2023-03-27T07:46:41.964Z,4.04
2023-03-27T07:47:41.968Z,4.03
2023-03-27T07:48:41.964Z,4.01
2023-03-27T07:49:41.952Z,3.92
2023-03-27T07:50:41.919Z,3.90
2023-03-27T07:51:41.917Z,3.90
2023-03-27T07:52:41.901Z,3.92
2023-03-27T07:53:41.892Z,3.97
2023-03-27T07:54:41.861Z,4.01
2023-03-27T07:55:41.862Z,4.07
2023-03-27T07:56:41.903Z,4.04
2023-03-27T07:57:57.210Z,4.04
2023-03-27T07:58:42.841Z,4.15
2023-03-27T07:59:41.778Z,4.24
2023-03-27T08:00:41.799Z,4.33
2023-03-27T08:01:41.781Z,4.39
2023-03-27T08:02:41.823Z,4.44
2023-03-27T08:03:41.932Z,4.59
2023-03-27T08:04:41.923Z,4.65
2023-03-27T08:05:41.751Z,4.72
2023-03-27T08:06:41.714Z,4.75
2023-03-27T08:07:41.715Z,4.84
2023-03-27T08:08:41.726Z,4.80
2023-03-27T08:09:41.673Z,4.83
2023-03-27T08:10:41.687Z,4.79
2023-03-27T08:11:41.657Z,4.77
2023-03-27T08:12:41.861Z,4.73
2023-03-27T08:13:41.651Z,4.69
2023-03-27T08:14:41.612Z,4.67
2023-03-27T08:15:41.625Z,4.69
2023-03-27T08:16:41.603Z,4.65
2023-03-27T08:17:41.652Z,4.67
2023-03-27T08:18:41.594Z,4.72
2023-03-27T08:19:41.548Z,4.77
2023-03-27T08:20:41.544Z,4.86
2023-03-27T08:21:41.554Z,4.95
2023-03-27T08:22:41.529Z,5.01
2023-03-27T08:23:41.512Z,5.02
2023-03-27T08:24:41.486Z,5.10
2023-03-27T08:25:41.458Z,5.16
2023-03-27T08:26:41.468Z,5.20
2023-03-27T08:27:41.467Z,5.28
2023-03-27T08:28:41.440Z,5.37
2023-03-27T08:29:41.434Z,5.40
2023-03-27T08:30:41.432Z,5.43
2023-03-27T08:31:41.406Z,5.45
2023-03-27T08:32:41.488Z,5.48
2023-03-27T08:33:41.368Z,5.41
2023-03-27T08:34:41.355Z,5.37
2023-03-27T08:35:41.370Z,5.28
2023-03-27T08:36:41.317Z,5.20
2023-03-27T08:37:41.357Z,5.27
2023-03-27T08:38:41.318Z,5.30
2023-03-27T08:39:41.280Z,5.23
2023-03-27T08:40:41.284Z,5.23
2023-03-27T08:41:41.273Z,5.31
2023-03-27T08:42:41.267Z,5.37
2023-03-27T08:43:41.222Z,5.45
2023-03-27T08:44:41.360Z,5.52
2023-03-27T08:45:41.469Z,5.60
2023-03-27T08:46:41.248Z,5.73
2023-03-27T08:47:41.218Z,5.85
2023-03-27T08:48:41.169Z,5.95
2023-03-27T08:49:41.169Z,6.10
2023-03-27T08:50:41.144Z,6.22
2023-03-27T08:51:41.122Z,6.33
2023-03-27T08:52:41.157Z,6.43
2023-03-27T08:53:41.140Z,6.44
2023-03-27T08:54:41.112Z,6.58
2023-03-27T08:55:41.089Z,6.63
2023-03-27T08:56:41.132Z,6.54
2023-03-27T08:57:41.116Z,6.53
2023-03-27T08:58:41.063Z,6.56
2023-03-27T08:59:41.046Z,6.63
2023-03-27T09:00:41.036Z,6.73
2023-03-27T09:01:41.115Z,6.86
2023-03-27T09:02:41.076Z,6.99
2023-03-27T09:03:41.107Z,7.04
2023-03-27T09:04:40.989Z,7.07
2023-03-27T09:05:40.947Z,7.13
2023-03-27T09:06:40.936Z,7.19
2023-03-27T09:07:40.914Z,7.26
2023-03-27T09:08:40.959Z,7.42
2023-03-27T09:09:40.924Z,7.62
2023-03-27T09:10:40.890Z,7.77
2023-03-27T09:11:40.857Z,7.89
2023-03-27T09:12:43.516Z,7.96
2023-03-27T09:13:40.860Z,7.94
2023-03-27T09:14:40.844Z,7.84
2023-03-27T09:15:40.858Z,7.56
2023-03-27T09:16:40.840Z,7.47
2023-03-27T09:17:40.846Z,7.16
2023-03-27T09:18:40.807Z,6.84
2023-03-27T09:19:40.804Z,6.61
2023-03-27T09:20:40.788Z,6.41
2023-03-27T09:21:40.749Z,6.29
2023-03-27T09:22:40.785Z,6.18
2023-03-27T09:23:40.721Z,6.01
2023-03-27T09:24:40.734Z,5.95
2023-03-27T09:25:40.691Z,5.83
2023-03-27T09:26:40.677Z,5.96
2023-03-27T09:27:40.664Z,6.21
2023-03-27T09:28:40.654Z,6.46
2023-03-27T09:29:40.852Z,6.72
2023-03-27T09:30:40.610Z,7.05
2023-03-27T09:31:40.619Z,7.38
2023-03-27T09:32:40.652Z,7.74
2023-03-27T09:33:40.625Z,8.02
2023-03-27T09:34:40.597Z,8.25
2023-03-27T09:35:40.620Z,8.45
2023-03-27T09:36:40.555Z,8.63
2023-03-27T09:37:40.547Z,8.91
2023-03-27T09:38:40.518Z,8.94
2023-03-27T09:39:40.522Z,8.87
2023-03-27T09:40:40.512Z,8.71
2023-03-27T09:41:40.472Z,8.55
2023-03-27T09:42:40.471Z,8.32
2023-03-27T09:43:40.498Z,8.12
2023-03-27T09:44:40.483Z,7.93
2023-03-27T09:45:40.434Z,7.74
2023-03-27T09:46:40.559Z,7.53
2023-03-27T10:03:09.058Z,7.94
2023-03-27T10:04:09.005Z,7.92
2023-03-27T10:05:08.974Z,7.81
2023-03-27T10:06:08.956Z,7.71
2023-03-27T10:07:08.932Z,7.66
2023-03-27T10:08:08.920Z,7.53
2023-03-27T10:09:08.910Z,7.37
2023-03-27T10:10:08.935Z,7.17
2023-03-27T10:11:08.892Z,6.99
2023-03-27T10:12:08.899Z,6.83
2023-03-27T10:13:08.861Z,7.07
2023-03-27T10:14:08.847Z,7.38
2023-03-27T10:15:08.860Z,7.63
2023-03-27T10:16:08.857Z,7.66
2023-03-27T10:17:08.847Z,7.66
2023-03-27T10:18:08.868Z,7.60
2023-03-27T10:19:08.766Z,7.60
2023-03-27T10:20:08.807Z,7.60
2023-03-27T10:21:08.758Z,7.60
2023-03-27T10:22:08.748Z,7.55
2023-03-27T10:23:10.082Z,7.45
2023-03-27T10:24:08.715Z,7.72
2023-03-27T10:25:08.705Z,7.69
2023-03-27T10:26:08.700Z,7.71
2023-03-27T10:27:08.687Z,7.72
2023-03-27T10:28:08.669Z,7.81
2023-03-27T10:29:08.653Z,7.84
2023-03-27T10:30:08.696Z,7.90
2023-03-27T10:31:08.627Z,7.94
2023-03-27T10:32:08.705Z,7.90
2023-03-27T10:33:08.666Z,7.84
2023-03-27T10:34:08.610Z,7.81
2023-03-27T10:35:08.594Z,8.03
2023-03-27T10:36:08.632Z,8.14
2023-03-27T10:37:08.581Z,8.10
2023-03-27T10:38:08.534Z,8.00
2023-03-27T10:39:08.534Z,7.92
2023-03-27T10:40:08.513Z,7.90
2023-03-27T10:41:08.505Z,7.89
2023-03-27T10:42:08.506Z,7.79
2023-03-27T10:43:09.104Z,7.77
2023-03-27T10:44:08.455Z,7.71
2023-03-27T10:45:08.448Z,7.59
2023-03-27T10:46:08.519Z,7.53
2023-03-27T10:47:08.460Z,7.49
2023-03-27T10:48:08.452Z,7.45
2023-03-27T10:49:08.395Z,7.59
2023-03-27T10:50:08.384Z,7.93
2023-03-27T10:51:08.386Z,8.30
2023-03-27T10:52:08.398Z,8.47
2023-03-27T10:53:08.454Z,8.44
2023-03-27T10:54:08.543Z,8.51
2023-03-27T10:55:08.314Z,8.44
2023-03-27T10:56:08.383Z,8.30
2023-03-27T10:57:08.369Z,8.18
2023-03-27T10:58:08.297Z,7.96
2023-03-27T10:59:08.259Z,7.79
2023-03-27T11:00:08.257Z,7.63
2023-03-27T11:01:08.376Z,7.58
2023-03-27T11:02:09.486Z,7.55
2023-03-27T11:03:08.262Z,7.85
2023-03-27T11:04:08.263Z,8.00
2023-03-27T11:05:08.280Z,8.02
2023-03-27T11:06:08.211Z,8.20
2023-03-27T11:07:08.156Z,8.37
2023-03-27T11:08:08.210Z,8.39
2023-03-27T11:09:08.149Z,8.30
2023-03-27T11:10:08.123Z,8.08
2023-03-27T11:11:08.130Z,7.85
2023-03-27T11:12:08.100Z,7.82
2023-03-27T11:13:08.098Z,7.74
2023-03-27T11:14:08.102Z,7.63
2023-03-27T11:15:08.067Z,7.82
2023-03-27T11:16:08.077Z,8.14
2023-03-27T11:17:08.106Z,8.26
2023-03-27T11:18:08.121Z,8.22
2023-03-27T11:19:08.028Z,8.03
2023-03-27T11:20:08.023Z,7.78
2023-03-27T11:21:07.997Z,7.59
2023-03-27T11:22:07.962Z,7.31
2023-03-27T11:23:07.967Z,7.15
2023-03-27T11:24:07.955Z,7.16
2023-03-27T11:25:07.938Z,7.22
2023-03-27T11:26:07.945Z,7.23
2023-03-27T11:27:07.892Z,7.20
2023-03-27T11:28:07.906Z,7.13
2023-03-27T11:29:07.878Z,7.05
2023-03-27T11:30:07.889Z,7.04
2023-03-27T11:31:13.082Z,6.99
2023-03-27T11:32:08.857Z,7.04
2023-03-27T11:33:07.859Z,7.41
2023-03-27T11:34:07.837Z,8.15
2023-03-27T11:35:07.820Z,8.66
2023-03-27T11:36:07.872Z,8.45
2023-03-27T11:37:07.815Z,8.96
2023-03-27T11:38:07.802Z,10.00
2023-03-27T11:39:07.765Z,11.01
2023-03-27T11:40:07.757Z,11.75
2023-03-27T11:41:07.744Z,12.37
2023-03-27T11:42:07.736Z,13.17
2023-03-27T11:43:07.699Z,13.99
2023-03-27T11:44:07.711Z,14.28
2023-03-27T11:45:07.670Z,14.74
2023-03-27T11:46:07.722Z,14.68
2023-03-27T11:47:07.656Z,14.72
2023-03-27T11:48:10.678Z,15.13
2023-03-27T11:49:07.640Z,15.61
2023-03-27T11:50:07.631Z,15.85
2023-03-27T11:51:07.606Z,16.18
2023-03-27T11:52:07.579Z,16.20
2023-03-27T11:53:07.576Z,15.67
2023-03-27T11:54:07.590Z,15.28
2023-03-27T11:55:07.583Z,14.60
2023-03-27T11:56:07.580Z,14.19
2023-03-27T11:57:07.687Z,14.39
2023-03-27T11:58:07.516Z,14.86
2023-03-27T11:59:07.519Z,14.42
2023-03-27T12:00:07.495Z,13.91
2023-03-27T12:01:07.474Z,13.44
2023-03-27T12:02:07.455Z,14.19
2023-03-27T12:03:07.536Z,14.52
2023-03-27T12:04:07.526Z,13.88
2023-03-27T12:05:07.430Z,12.85
2023-03-27T12:06:07.436Z,11.99
2023-03-27T12:07:09.806Z,11.20
2023-03-27T12:08:07.371Z,10.96
2023-03-27T12:09:07.369Z,10.47
2023-03-27T12:10:07.380Z,9.67
2023-03-27T12:11:07.327Z,9.28
2023-03-27T12:12:07.338Z,8.96
2023-03-27T12:13:07.294Z,8.60
2023-03-27T12:14:17.551Z,8.11
2023-03-27T12:15:08.300Z,7.74
2023-03-27T12:16:07.289Z,7.40
2023-03-27T12:17:07.262Z,7.12
2023-03-27T12:18:07.283Z,6.91
2023-03-27T12:19:17.267Z,6.81
2023-03-27T12:20:08.216Z,6.87
2023-03-27T12:21:07.226Z,8.00
2023-03-27T12:22:14.268Z,9.93
2023-03-27T12:23:08.299Z,11.72
2023-03-27T12:24:07.186Z,13.46
2023-03-27T12:25:07.201Z,14.35
2023-03-27T12:26:07.138Z,15.09
2023-03-27T12:27:07.129Z,15.74
2023-03-27T12:28:07.120Z,16.34
2023-03-27T12:29:22.635Z,17.15
2023-03-27T12:30:08.153Z,17.78
2023-03-27T12:31:07.093Z,17.88
2023-03-27T12:32:07.120Z,17.88
2023-03-27T12:33:07.131Z,17.71
2023-03-27T12:34:07.041Z,18.15
2023-03-27T12:35:07.032Z,18.24
2023-03-27T12:36:07.080Z,17.04
2023-03-27T12:37:07.000Z,15.85
2023-03-27T12:38:07.022Z,14.83
2023-03-27T12:39:06.975Z,13.69
2023-03-27T12:40:06.996Z,13.04
2023-03-27T12:41:06.935Z,12.37
2023-03-27T12:42:06.919Z,11.94
2023-03-27T12:43:06.929Z,11.35
2023-03-27T12:44:06.914Z,11.09
2023-03-27T12:45:06.896Z,10.71
2023-03-27T12:46:07.148Z,10.78
2023-03-27T12:47:09.035Z,10.99
2023-03-27T12:48:06.890Z,10.76
2023-03-27T12:49:06.834Z,10.58
2023-03-27T12:50:06.905Z,10.62
2023-03-27T12:51:06.819Z,10.59
2023-03-27T12:52:06.801Z,10.62
2023-03-27T12:53:06.804Z,10.43
2023-03-27T12:54:06.791Z,10.21
2023-03-27T12:55:06.770Z,9.89
2023-03-27T12:56:06.756Z,9.61
2023-03-27T12:57:06.855Z,9.30
2023-03-27T12:58:06.789Z,9.16
2023-03-27T12:59:07.410Z,8.84
2023-03-27T13:00:06.771Z,8.57
2023-03-27T13:01:06.702Z,8.32
2023-03-27T13:02:06.863Z,8.20
2023-03-27T13:03:06.720Z,8.07
2023-03-27T13:04:06.700Z,7.71
2023-03-27T13:05:16.455Z,7.35
2023-03-27T13:06:07.608Z,6.98
2023-03-27T13:07:06.642Z,6.62
2023-03-27T13:08:06.589Z,6.10
2023-03-27T13:09:06.598Z,5.85
2023-03-27T13:10:06.672Z,5.71
2023-03-27T13:11:06.569Z,5.46
2023-03-27T13:12:06.526Z,5.16
2023-03-27T13:13:06.527Z,4.95
2023-03-27T13:14:06.514Z,4.77
2023-03-27T13:15:06.513Z,4.70
2023-03-27T13:16:06.499Z,4.55
2023-03-27T13:17:06.506Z,4.44
2023-03-27T13:18:06.520Z,4.42
2023-03-27T13:19:06.438Z,4.50
2023-03-27T13:20:06.429Z,4.55
2023-03-27T13:21:06.452Z,4.67
2023-03-27T13:22:06.407Z,4.80
2023-03-27T13:23:06.398Z,4.92
2023-03-27T13:24:08.600Z,5.13
2023-03-27T13:25:06.373Z,5.10
2023-03-27T13:26:06.364Z,5.09
2023-03-27T13:27:06.344Z,5.27
2023-03-27T13:28:06.322Z,5.37
2023-03-27T13:29:06.350Z,5.23
2023-03-27T13:30:06.326Z,5.20
2023-03-27T13:31:06.352Z,5.13
2023-03-27T13:32:06.272Z,5.12
2023-03-27T13:33:06.316Z,5.28
2023-03-27T13:34:06.300Z,5.67
2023-03-27T13:35:06.245Z,5.89
2023-03-27T13:36:06.310Z,6.83
2023-03-27T13:37:06.883Z,6.69
2023-03-27T13:38:06.493Z,7.47
2023-03-27T13:39:06.193Z,8.57
2023-03-27T13:40:06.183Z,9.60
2023-03-27T13:41:06.172Z,10.68
2023-03-27T13:42:06.160Z,11.77
2023-03-27T13:43:06.138Z,12.75
2023-03-27T13:44:06.128Z,12.56